sensor_id;sensor_type;location;lat;lon;timestamp;P1;durP1;ratioP1;P2;durP2;ratioP2
2892;SDS011;1456;51.840;12.184;2023-05-27T00:01:43;0.50;;;0.50;;
2892;SDS011;1456;51.840;12.184;2023-05-27T00:04:08;3.20;;;2.90;;
2892;SDS011;1456;51.840;12.184;2023-05-27T00:06:34;1.07;;;0.97;;
2892;SDS011;1456;51.840;12.184;2023-05-27T00:09:01;14.67;;;3.97;;
2892;SDS011;1456;51.840;12.184;2023-05-27T00:11:27;3.33;;;1.77;;
2892;SDS011;1456;51.840;12.184;2023-05-27T00:13:52;1.03;;;0.60;;
2892;SDS011;1456;51.840;12.184;2023-05-27T00:16:18;0.60;;;0.60;;
2892;SDS011;1456;51.840;12.184;2023-05-27T00:18:45;1.07;;;1.07;;
2892;SDS011;1456;51.840;12.184;2023-05-27T00:21:12;2.33;;;1.00;;
2892;SDS011;1456;51.840;12.184;2023-05-27T00:23:38;1.00;;;1.00;;
2892;SDS011;1456;51.840;12.184;2023-05-27T00:26:04;0.90;;;0.90;;
2892;SDS011;1456;51.840;12.184;2023-05-27T00:28:31;2.00;;;1.70;;
2892;SDS011;1456;51.840;12.184;2023-05-27T00:31:00;1.40;;;0.63;;
2892;SDS011;1456;51.840;12.184;2023-05-27T00:33:27;3.70;;;1.67;;
2892;SDS011;1456;51.840;12.184;2023-05-27T00:35:53;1.13;;;0.83;;
2892;SDS011;1456;51.840;12.184;2023-05-27T00:38:18;0.43;;;0.43;;
2892;SDS011;1456;51.840;12.184;2023-05-27T00:40:44;1.13;;;0.70;;
2892;SDS011;1456;51.840;12.184;2023-05-27T00:43:11;0.90;;;0.90;;
2892;SDS011;1456;51.840;12.184;2023-05-27T00:45:37;0.40;;;0.40;;
2892;SDS011;1456;51.840;12.184;2023-05-27T00:48:03;1.43;;;1.33;;
2892;SDS011;1456;51.840;12.184;2023-05-27T00:50:30;0.93;;;0.80;;
2892;SDS011;1456;51.840;12.184;2023-05-27T00:52:56;0.63;;;0.63;;
2892;SDS011;1456;51.840;12.184;2023-05-27T00:55:23;2.00;;;0.50;;
2892;SDS011;1456;51.840;12.184;2023-05-27T00:57:50;1.03;;;0.80;;
2892;SDS011;1456;51.840;12.184;2023-05-27T01:00:18;0.63;;;0.60;;
2892;SDS011;1456;51.840;12.184;2023-05-27T01:02:44;0.50;;;0.50;;
2892;SDS011;1456;51.840;12.184;2023-05-27T01:05:12;0.70;;;0.70;;
2892;SDS011;1456;51.840;12.184;2023-05-27T01:16:01;0.53;;;0.53;;
2892;SDS011;1456;51.840;12.184;2023-05-27T01:18:30;1.10;;;1.00;;
2892;SDS011;1456;51.840;12.184;2023-05-27T01:21:09;0.40;;;0.40;;
2892;SDS011;1456;51.840;12.184;2023-05-27T01:23:40;0.70;;;0.70;;
2892;SDS011;1456;51.840;12.184;2023-05-27T01:26:06;0.43;;;0.40;;
2892;SDS011;1456;51.840;12.184;2023-05-27T01:28:32;0.60;;;0.60;;
2892;SDS011;1456;51.840;12.184;2023-05-27T01:31:22;1.13;;;1.13;;
2892;SDS011;1456;51.840;12.184;2023-05-27T01:34:02;0.47;;;0.47;;
2892;SDS011;1456;51.840;12.184;2023-05-27T01:36:33;0.50;;;0.50;;
2892;SDS011;1456;51.840;12.184;2023-05-27T01:39:12;2.30;;;1.43;;
2892;SDS011;1456;51.840;12.184;2023-05-27T01:41:39;0.67;;;0.67;;
2892;SDS011;1456;51.840;12.184;2023-05-27T01:44:08;0.60;;;0.60;;
2892;SDS011;1456;51.840;12.184;2023-05-27T01:46:36;0.70;;;0.70;;
2892;SDS011;1456;51.840;12.184;2023-05-27T01:49:02;1.50;;;1.50;;
2892;SDS011;1456;51.840;12.184;2023-05-27T01:51:28;1.03;;;0.90;;
2892;SDS011;1456;51.840;12.184;2023-05-27T01:53:55;1.87;;;1.67;;
2892;SDS011;1456;51.840;12.184;2023-05-27T01:56:21;0.63;;;0.63;;
2892;SDS011;1456;51.840;12.184;2023-05-27T01:58:47;1.00;;;0.90;;
2892;SDS011;1456;51.840;12.184;2023-05-27T02:01:13;0.40;;;0.40;;
2892;SDS011;1456;51.840;12.184;2023-05-27T02:03:39;0.60;;;0.60;;
2892;SDS011;1456;51.840;12.184;2023-05-27T02:06:05;0.97;;;0.97;;
2892;SDS011;1456;51.840;12.184;2023-05-27T02:08:31;10.33;;;1.60;;
2892;SDS011;1456;51.840;12.184;2023-05-27T02:10:58;0.67;;;0.67;;
2892;SDS011;1456;51.840;12.184;2023-05-27T02:13:24;2.43;;;1.70;;
2892;SDS011;1456;51.840;12.184;2023-05-27T02:15:50;0.60;;;0.60;;
2892;SDS011;1456;51.840;12.184;2023-05-27T02:18:17;1.23;;;0.90;;
2892;SDS011;1456;51.840;12.184;2023-05-27T02:20:45;0.70;;;0.70;;
2892;SDS011;1456;51.840;12.184;2023-05-27T02:23:11;0.97;;;0.97;;
2892;SDS011;1456;51.840;12.184;2023-05-27T02:25:38;2.50;;;1.20;;
2892;SDS011;1456;51.840;12.184;2023-05-27T02:28:08;0.53;;;0.53;;
2892;SDS011;1456;51.840;12.184;2023-05-27T02:30:35;2.97;;;0.90;;
2892;SDS011;1456;51.840;12.184;2023-05-27T02:33:00;0.80;;;0.80;;
2892;SDS011;1456;51.840;12.184;2023-05-27T02:35:27;0.40;;;0.40;;
2892;SDS011;1456;51.840;12.184;2023-05-27T02:37:55;0.73;;;0.53;;
2892;SDS011;1456;51.840;12.184;2023-05-27T02:40:29;1.50;;;1.40;;
2892;SDS011;1456;51.840;12.184;2023-05-27T02:42:55;4.13;;;1.27;;
2892;SDS011;1456;51.840;12.184;2023-05-27T02:47:53;0.93;;;0.83;;
2892;SDS011;1456;51.840;12.184;2023-05-27T02:50:21;0.40;;;0.40;;
2892;SDS011;1456;51.840;12.184;2023-05-27T02:52:50;0.97;;;0.80;;
2892;SDS011;1456;51.840;12.184;2023-05-27T02:55:17;0.87;;;0.70;;
2892;SDS011;1456;51.840;12.184;2023-05-27T02:57:44;0.53;;;0.53;;
2892;SDS011;1456;51.840;12.184;2023-05-27T03:00:10;0.70;;;0.70;;
2892;SDS011;1456;51.840;12.184;2023-05-27T03:02:38;0.67;;;0.67;;
2892;SDS011;1456;51.840;12.184;2023-05-27T03:05:06;0.87;;;0.87;;
2892;SDS011;1456;51.840;12.184;2023-05-27T03:07:32;1.03;;;1.03;;
2892;SDS011;1456;51.840;12.184;2023-05-27T03:09:58;1.67;;;1.67;;
2892;SDS011;1456;51.840;12.184;2023-05-27T03:12:25;1.10;;;1.00;;
2892;SDS011;1456;51.840;12.184;2023-05-27T03:14:52;0.93;;;0.80;;
2892;SDS011;1456;51.840;12.184;2023-05-27T03:17:18;1.93;;;0.77;;
2892;SDS011;1456;51.840;12.184;2023-05-27T03:19:45;0.70;;;0.70;;
2892;SDS011;1456;51.840;12.184;2023-05-27T03:22:11;0.70;;;0.70;;
2892;SDS011;1456;51.840;12.184;2023-05-27T03:24:36;0.50;;;0.30;;
2892;SDS011;1456;51.840;12.184;2023-05-27T03:27:02;0.30;;;0.30;;
2892;SDS011;1456;51.840;12.184;2023-05-27T03:29:28;0.60;;;0.60;;
2892;SDS011;1456;51.840;12.184;2023-05-27T03:31:56;0.67;;;0.67;;
2892;SDS011;1456;51.840;12.184;2023-05-27T03:34:26;9.10;;;1.53;;
2892;SDS011;1456;51.840;12.184;2023-05-27T03:36:52;1.43;;;1.13;;
2892;SDS011;1456;51.840;12.184;2023-05-27T03:39:18;0.57;;;0.57;;
2892;SDS011;1456;51.840;12.184;2023-05-27T03:41:46;1.30;;;1.20;;
2892;SDS011;1456;51.840;12.184;2023-05-27T03:44:13;1.43;;;0.40;;
2892;SDS011;1456;51.840;12.184;2023-05-27T03:46:39;0.70;;;0.70;;
2892;SDS011;1456;51.840;12.184;2023-05-27T03:49:05;0.70;;;0.60;;
2892;SDS011;1456;51.840;12.184;2023-05-27T03:51:31;0.40;;;0.40;;
2892;SDS011;1456;51.840;12.184;2023-05-27T03:53:56;0.50;;;0.50;;
2892;SDS011;1456;51.840;12.184;2023-05-27T03:56:22;0.70;;;0.60;;
2892;SDS011;1456;51.840;12.184;2023-05-27T03:58:49;7.70;;;2.10;;
2892;SDS011;1456;51.840;12.184;2023-05-27T04:01:15;17.33;;;0.80;;
2892;SDS011;1456;51.840;12.184;2023-05-27T04:03:42;0.47;;;0.47;;
2892;SDS011;1456;51.840;12.184;2023-05-27T04:06:11;1.33;;;1.23;;
2892;SDS011;1456;51.840;12.184;2023-05-27T04:08:37;1.13;;;1.13;;
2892;SDS011;1456;51.840;12.184;2023-05-27T04:11:04;0.30;;;0.30;;
2892;SDS011;1456;51.840;12.184;2023-05-27T04:13:30;1.50;;;1.50;;
2892;SDS011;1456;51.840;12.184;2023-05-27T04:15:55;4.13;;;1.50;;
2892;SDS011;1456;51.840;12.184;2023-05-27T04:18:24;0.37;;;0.30;;
2892;SDS011;1456;51.840;12.184;2023-05-27T04:20:50;0.67;;;0.50;;
2892;SDS011;1456;51.840;12.184;2023-05-27T04:23:17;2.73;;;0.60;;
2892;SDS011;1456;51.840;12.184;2023-05-27T04:25:42;0.87;;;0.70;;
2892;SDS011;1456;51.840;12.184;2023-05-27T04:28:08;1.27;;;1.10;;
2892;SDS011;1456;51.840;12.184;2023-05-27T04:30:34;1.73;;;1.63;;
2892;SDS011;1456;51.840;12.184;2023-05-27T04:33:04;0.53;;;0.53;;
2892;SDS011;1456;51.840;12.184;2023-05-27T04:38:02;1.57;;;1.47;;
2892;SDS011;1456;51.840;12.184;2023-05-27T04:40:28;0.63;;;0.63;;
2892;SDS011;1456;51.840;12.184;2023-05-27T04:42:56;1.13;;;1.03;;
2892;SDS011;1456;51.840;12.184;2023-05-27T04:45:22;0.53;;;0.53;;
2892;SDS011;1456;51.840;12.184;2023-05-27T04:47:50;0.57;;;0.57;;
2892;SDS011;1456;51.840;12.184;2023-05-27T04:50:16;0.50;;;0.40;;
2892;SDS011;1456;51.840;12.184;2023-05-27T04:52:41;0.83;;;0.40;;
2892;SDS011;1456;51.840;12.184;2023-05-27T04:55:09;0.50;;;0.50;;
2892;SDS011;1456;51.840;12.184;2023-05-27T04:57:38;0.63;;;0.63;;
2892;SDS011;1456;51.840;12.184;2023-05-27T05:00:13;0.80;;;0.63;;
2892;SDS011;1456;51.840;12.184;2023-05-27T05:03:03;0.90;;;0.80;;
2892;SDS011;1456;51.840;12.184;2023-05-27T05:05:30;0.37;;;0.33;;
2892;SDS011;1456;51.840;12.184;2023-05-27T05:07:57;0.50;;;0.47;;
2892;SDS011;1456;51.840;12.184;2023-05-27T05:10:24;0.73;;;0.73;;
2892;SDS011;1456;51.840;12.184;2023-05-27T05:12:51;0.90;;;0.50;;
2892;SDS011;1456;51.840;12.184;2023-05-27T05:15:17;1.30;;;1.00;;
2892;SDS011;1456;51.840;12.184;2023-05-27T05:17:43;0.60;;;0.60;;
2892;SDS011;1456;51.840;12.184;2023-05-27T05:20:09;0.50;;;0.50;;
2892;SDS011;1456;51.840;12.184;2023-05-27T05:22:36;1.07;;;0.57;;
2892;SDS011;1456;51.840;12.184;2023-05-27T05:25:01;0.60;;;0.60;;
2892;SDS011;1456;51.840;12.184;2023-05-27T05:27:29;0.87;;;0.87;;
2892;SDS011;1456;51.840;12.184;2023-05-27T05:29:55;0.40;;;0.30;;
2892;SDS011;1456;51.840;12.184;2023-05-27T05:32:22;0.60;;;0.60;;
2892;SDS011;1456;51.840;12.184;2023-05-27T05:34:47;0.63;;;0.63;;
2892;SDS011;1456;51.840;12.184;2023-05-27T05:37:13;0.40;;;0.33;;
2892;SDS011;1456;51.840;12.184;2023-05-27T05:39:40;1.00;;;0.60;;
2892;SDS011;1456;51.840;12.184;2023-05-27T05:42:08;1.03;;;1.03;;
2892;SDS011;1456;51.840;12.184;2023-05-27T05:44:35;0.63;;;0.63;;
2892;SDS011;1456;51.840;12.184;2023-05-27T05:47:00;0.40;;;0.40;;
2892;SDS011;1456;51.840;12.184;2023-05-27T05:49:26;1.53;;;1.43;;
2892;SDS011;1456;51.840;12.184;2023-05-27T05:51:52;0.60;;;0.60;;
2892;SDS011;1456;51.840;12.184;2023-05-27T05:54:17;0.40;;;0.40;;
2892;SDS011;1456;51.840;12.184;2023-05-27T05:56:45;6.13;;;0.80;;
2892;SDS011;1456;51.840;12.184;2023-05-27T05:59:12;0.47;;;0.47;;
2892;SDS011;1456;51.840;12.184;2023-05-27T06:01:40;0.60;;;0.60;;
2892;SDS011;1456;51.840;12.184;2023-05-27T06:04:06;0.77;;;0.77;;
2892;SDS011;1456;51.840;12.184;2023-05-27T06:06:32;0.90;;;0.90;;
2892;SDS011;1456;51.840;12.184;2023-05-27T06:08:57;0.50;;;0.50;;
2892;SDS011;1456;51.840;12.184;2023-05-27T06:11:23;1.80;;;1.60;;
2892;SDS011;1456;51.840;12.184;2023-05-27T06:13:49;2.63;;;1.63;;
2892;SDS011;1456;51.840;12.184;2023-05-27T06:18:44;0.80;;;0.80;;
2892;SDS011;1456;51.840;12.184;2023-05-27T06:21:11;0.80;;;0.80;;
2892;SDS011;1456;51.840;12.184;2023-05-27T06:23:37;1.00;;;1.00;;
2892;SDS011;1456;51.840;12.184;2023-05-27T06:26:04;7.47;;;2.80;;
2892;SDS011;1456;51.840;12.184;2023-05-27T06:28:29;1.67;;;1.57;;
2892;SDS011;1456;51.840;12.184;2023-05-27T06:30:56;2.37;;;1.77;;
2892;SDS011;1456;51.840;12.184;2023-05-27T06:33:23;0.80;;;0.80;;
2892;SDS011;1456;51.840;12.184;2023-05-27T06:35:48;2.80;;;1.40;;
2892;SDS011;1456;51.840;12.184;2023-05-27T06:38:14;1.10;;;1.10;;
2892;SDS011;1456;51.840;12.184;2023-05-27T06:43:17;1.40;;;1.40;;
2892;SDS011;1456;51.840;12.184;2023-05-27T06:45:43;2.53;;;2.40;;
2892;SDS011;1456;51.840;12.184;2023-05-27T06:48:10;1.10;;;1.10;;
2892;SDS011;1456;51.840;12.184;2023-05-27T06:50:35;2.33;;;2.13;;
2892;SDS011;1456;51.840;12.184;2023-05-27T06:53:02;1.53;;;1.53;;
2892;SDS011;1456;51.840;12.184;2023-05-27T06:55:31;4.83;;;1.77;;
2892;SDS011;1456;51.840;12.184;2023-05-27T06:57:57;1.30;;;1.30;;
2892;SDS011;1456;51.840;12.184;2023-05-27T07:00:24;1.80;;;1.80;;
2892;SDS011;1456;51.840;12.184;2023-05-27T07:02:52;1.63;;;1.63;;
2892;SDS011;1456;51.840;12.184;2023-05-27T07:05:19;2.00;;;2.00;;
2892;SDS011;1456;51.840;12.184;2023-05-27T07:07:45;2.40;;;2.40;;
2892;SDS011;1456;51.840;12.184;2023-05-27T07:10:13;2.83;;;2.77;;
2892;SDS011;1456;51.840;12.184;2023-05-27T07:12:41;2.10;;;2.10;;
2892;SDS011;1456;51.840;12.184;2023-05-27T07:15:08;4.60;;;4.30;;
2892;SDS011;1456;51.840;12.184;2023-05-27T07:17:34;4.50;;;3.97;;
2892;SDS011;1456;51.840;12.184;2023-05-27T07:20:00;2.60;;;2.60;;
2892;SDS011;1456;51.840;12.184;2023-05-27T07:22:25;4.20;;;4.07;;
2892;SDS011;1456;51.840;12.184;2023-05-27T07:24:55;2.80;;;2.80;;
2892;SDS011;1456;51.840;12.184;2023-05-27T07:27:21;2.43;;;2.43;;
2892;SDS011;1456;51.840;12.184;2023-05-27T07:29:49;2.73;;;2.73;;
2892;SDS011;1456;51.840;12.184;2023-05-27T07:32:15;4.63;;;4.40;;
2892;SDS011;1456;51.840;12.184;2023-05-27T07:37:11;4.57;;;4.47;;
2892;SDS011;1456;51.840;12.184;2023-05-27T07:39:37;4.40;;;4.40;;
2892;SDS011;1456;51.840;12.184;2023-05-27T07:42:03;4.13;;;4.03;;
2892;SDS011;1456;51.840;12.184;2023-05-27T07:44:30;3.40;;;3.40;;
2892;SDS011;1456;51.840;12.184;2023-05-27T07:46:56;3.20;;;3.20;;
2892;SDS011;1456;51.840;12.184;2023-05-27T07:49:21;5.30;;;4.80;;
2892;SDS011;1456;51.840;12.184;2023-05-27T07:51:47;4.93;;;4.83;;
2892;SDS011;1456;51.840;12.184;2023-05-27T07:54:13;5.47;;;5.27;;
2892;SDS011;1456;51.840;12.184;2023-05-27T07:56:39;5.60;;;5.50;;
2892;SDS011;1456;51.840;12.184;2023-05-27T07:59:05;4.40;;;4.30;;
2892;SDS011;1456;51.840;12.184;2023-05-27T08:01:31;4.47;;;4.40;;
2892;SDS011;1456;51.840;12.184;2023-05-27T08:04:00;5.10;;;5.10;;
2892;SDS011;1456;51.840;12.184;2023-05-27T08:06:26;10.00;;;9.90;;
2892;SDS011;1456;51.840;12.184;2023-05-27T08:08:53;10.73;;;10.63;;
2892;SDS011;1456;51.840;12.184;2023-05-27T08:11:18;12.10;;;11.80;;
2892;SDS011;1456;51.840;12.184;2023-05-27T08:13:45;6.50;;;6.40;;
2892;SDS011;1456;51.840;12.184;2023-05-27T08:16:10;9.00;;;8.40;;
2892;SDS011;1456;51.840;12.184;2023-05-27T08:18:37;13.23;;;13.03;;
2892;SDS011;1456;51.840;12.184;2023-05-27T08:21:04;12.47;;;11.97;;
2892;SDS011;1456;51.840;12.184;2023-05-27T08:23:30;6.70;;;6.60;;
2892;SDS011;1456;51.840;12.184;2023-05-27T08:25:57;12.97;;;12.53;;
2892;SDS011;1456;51.840;12.184;2023-05-27T08:28:23;12.70;;;12.40;;
2892;SDS011;1456;51.840;12.184;2023-05-27T08:30:49;7.23;;;7.13;;
2892;SDS011;1456;51.840;12.184;2023-05-27T08:33:15;8.20;;;8.10;;
2892;SDS011;1456;51.840;12.184;2023-05-27T08:35:42;13.53;;;13.30;;
2892;SDS011;1456;51.840;12.184;2023-05-27T08:38:08;14.07;;;13.60;;
2892;SDS011;1456;51.840;12.184;2023-05-27T08:40:35;9.10;;;9.00;;
2892;SDS011;1456;51.840;12.184;2023-05-27T08:43:02;15.23;;;14.93;;
2892;SDS011;1456;51.840;12.184;2023-05-27T08:45:28;14.40;;;14.10;;
2892;SDS011;1456;51.840;12.184;2023-05-27T08:47:54;14.63;;;14.33;;
2892;SDS011;1456;51.840;12.184;2023-05-27T08:50:20;8.77;;;8.67;;
2892;SDS011;1456;51.840;12.184;2023-05-27T08:52:47;14.90;;;14.60;;
2892;SDS011;1456;51.840;12.184;2023-05-27T08:55:17;15.30;;;15.00;;
2892;SDS011;1456;51.840;12.184;2023-05-27T08:57:52;9.20;;;9.00;;
2892;SDS011;1456;51.840;12.184;2023-05-27T09:00:20;8.83;;;8.60;;
2892;SDS011;1456;51.840;12.184;2023-05-27T09:02:47;13.33;;;13.07;;
2892;SDS011;1456;51.840;12.184;2023-05-27T09:05:13;13.53;;;13.33;;
2892;SDS011;1456;51.840;12.184;2023-05-27T09:07:41;10.53;;;10.23;;
2892;SDS011;1456;51.840;12.184;2023-05-27T09:10:08;14.80;;;14.30;;
2892;SDS011;1456;51.840;12.184;2023-05-27T09:12:34;15.53;;;15.23;;
2892;SDS011;1456;51.840;12.184;2023-05-27T09:15:01;10.27;;;10.07;;
2892;SDS011;1456;51.840;12.184;2023-05-27T09:17:28;10.03;;;9.83;;
2892;SDS011;1456;51.840;12.184;2023-05-27T09:19:56;14.97;;;14.67;;
2892;SDS011;1456;51.840;12.184;2023-05-27T09:22:23;15.20;;;14.70;;
2892;SDS011;1456;51.840;12.184;2023-05-27T09:24:53;9.93;;;9.83;;
2892;SDS011;1456;51.840;12.184;2023-05-27T09:27:23;9.60;;;9.40;;
2892;SDS011;1456;51.840;12.184;2023-05-27T09:29:53;9.60;;;9.50;;
2892;SDS011;1456;51.840;12.184;2023-05-27T09:32:26;15.20;;;14.90;;
2892;SDS011;1456;51.840;12.184;2023-05-27T09:35:01;15.77;;;15.37;;
2892;SDS011;1456;51.840;12.184;2023-05-27T09:37:27;9.37;;;9.27;;
2892;SDS011;1456;51.840;12.184;2023-05-27T09:39:59;9.90;;;9.70;;
2892;SDS011;1456;51.840;12.184;2023-05-27T09:42:38;15.43;;;15.10;;
2892;SDS011;1456;51.840;12.184;2023-05-27T09:45:17;16.57;;;15.40;;
2892;SDS011;1456;51.840;12.184;2023-05-27T09:47:48;9.90;;;9.70;;
2892;SDS011;1456;51.840;12.184;2023-05-27T09:50:16;9.40;;;9.30;;
2892;SDS011;1456;51.840;12.184;2023-05-27T09:52:45;9.20;;;9.10;;
2892;SDS011;1456;51.840;12.184;2023-05-27T09:55:12;16.53;;;16.23;;
2892;SDS011;1456;51.840;12.184;2023-05-27T09:57:40;16.70;;;16.40;;
2892;SDS011;1456;51.840;12.184;2023-05-27T10:00:07;10.40;;;10.20;;
2892;SDS011;1456;51.840;12.184;2023-05-27T10:02:36;10.67;;;10.37;;
2892;SDS011;1456;51.840;12.184;2023-05-27T10:05:03;9.80;;;9.70;;
2892;SDS011;1456;51.840;12.184;2023-05-27T10:07:34;9.63;;;9.53;;
2892;SDS011;1456;51.840;12.184;2023-05-27T10:10:02;11.37;;;11.13;;
2892;SDS011;1456;51.840;12.184;2023-05-27T10:12:28;10.60;;;10.40;;
2892;SDS011;1456;51.840;12.184;2023-05-27T10:14:54;9.60;;;9.50;;
2892;SDS011;1456;51.840;12.184;2023-05-27T10:17:21;11.50;;;11.20;;
2892;SDS011;1456;51.840;12.184;2023-05-27T10:19:56;10.10;;;10.00;;
2892;SDS011;1456;51.840;12.184;2023-05-27T10:22:22;11.23;;;11.03;;
2892;SDS011;1456;51.840;12.184;2023-05-27T10:24:48;10.77;;;10.57;;
2892;SDS011;1456;51.840;12.184;2023-05-27T10:27:16;10.70;;;10.50;;
2892;SDS011;1456;51.840;12.184;2023-05-27T10:29:42;10.10;;;10.00;;
2892;SDS011;1456;51.840;12.184;2023-05-27T10:32:08;10.17;;;9.97;;
2892;SDS011;1456;51.840;12.184;2023-05-27T10:34:37;9.73;;;9.60;;
2892;SDS011;1456;51.840;12.184;2023-05-27T10:37:08;11.20;;;10.80;;
2892;SDS011;1456;51.840;12.184;2023-05-27T10:39:36;10.10;;;9.90;;
2892;SDS011;1456;51.840;12.184;2023-05-27T10:42:03;10.10;;;9.90;;
2892;SDS011;1456;51.840;12.184;2023-05-27T10:47:02;18.30;;;17.80;;
2892;SDS011;1456;51.840;12.184;2023-05-27T10:49:33;17.63;;;17.03;;
2892;SDS011;1456;51.840;12.184;2023-05-27T10:52:07;10.40;;;10.20;;
2892;SDS011;1456;51.840;12.184;2023-05-27T10:54:44;10.10;;;10.00;;
2892;SDS011;1456;51.840;12.184;2023-05-27T10:57:17;17.43;;;17.03;;
2892;SDS011;1456;51.840;12.184;2023-05-27T10:59:48;17.67;;;17.27;;
2892;SDS011;1456;51.840;12.184;2023-05-27T11:02:17;16.83;;;16.43;;
2892;SDS011;1456;51.840;12.184;2023-05-27T11:04:44;10.93;;;10.73;;
2892;SDS011;1456;51.840;12.184;2023-05-27T11:07:10;11.00;;;10.80;;
2892;SDS011;1456;51.840;12.184;2023-05-27T11:09:49;11.30;;;11.00;;
2892;SDS011;1456;51.840;12.184;2023-05-27T11:12:16;17.20;;;16.60;;
2892;SDS011;1456;51.840;12.184;2023-05-27T11:14:48;17.50;;;17.00;;
2892;SDS011;1456;51.840;12.184;2023-05-27T11:17:14;11.13;;;10.87;;
2892;SDS011;1456;51.840;12.184;2023-05-27T11:19:42;10.60;;;10.43;;
2892;SDS011;1456;51.840;12.184;2023-05-27T11:22:10;11.00;;;10.80;;
2892;SDS011;1456;51.840;12.184;2023-05-27T11:24:36;11.17;;;10.97;;
2892;SDS011;1456;51.840;12.184;2023-05-27T11:27:08;19.47;;;18.77;;
2892;SDS011;1456;51.840;12.184;2023-05-27T11:29:36;16.67;;;16.37;;
2892;SDS011;1456;51.840;12.184;2023-05-27T11:32:03;10.63;;;10.43;;
2892;SDS011;1456;51.840;12.184;2023-05-27T11:34:30;11.00;;;10.63;;
2892;SDS011;1456;51.840;12.184;2023-05-27T11:37:02;11.87;;;11.43;;
2892;SDS011;1456;51.840;12.184;2023-05-27T11:39:34;11.53;;;11.33;;
2892;SDS011;1456;51.840;12.184;2023-05-27T11:42:05;12.70;;;12.20;;
2892;SDS011;1456;51.840;12.184;2023-05-27T11:44:34;16.10;;;15.70;;
2892;SDS011;1456;51.840;12.184;2023-05-27T11:47:00;15.77;;;15.30;;
2892;SDS011;1456;51.840;12.184;2023-05-27T11:49:26;12.00;;;11.70;;
2892;SDS011;1456;51.840;12.184;2023-05-27T11:51:56;11.43;;;11.23;;
2892;SDS011;1456;51.840;12.184;2023-05-27T11:54:27;11.37;;;11.17;;
2892;SDS011;1456;51.840;12.184;2023-05-27T11:56:56;11.80;;;11.50;;
2892;SDS011;1456;51.840;12.184;2023-05-27T11:59:23;15.93;;;15.63;;
2892;SDS011;1456;51.840;12.184;2023-05-27T12:01:51;17.77;;;17.17;;
2892;SDS011;1456;51.840;12.184;2023-05-27T12:04:19;11.40;;;11.20;;
2892;SDS011;1456;51.840;12.184;2023-05-27T12:06:46;11.77;;;11.43;;
2892;SDS011;1456;51.840;12.184;2023-05-27T12:09:13;12.17;;;11.97;;
2892;SDS011;1456;51.840;12.184;2023-05-27T12:11:39;13.30;;;12.60;;
2892;SDS011;1456;51.840;12.184;2023-05-27T12:14:05;13.37;;;13.00;;
2892;SDS011;1456;51.840;12.184;2023-05-27T12:16:31;17.83;;;17.43;;
2892;SDS011;1456;51.840;12.184;2023-05-27T12:18:58;17.20;;;16.80;;
2892;SDS011;1456;51.840;12.184;2023-05-27T12:21:26;13.47;;;13.00;;
2892;SDS011;1456;51.840;12.184;2023-05-27T12:23:52;11.90;;;11.60;;
2892;SDS011;1456;51.840;12.184;2023-05-27T12:26:17;11.63;;;11.37;;
2892;SDS011;1456;51.840;12.184;2023-05-27T12:28:43;11.23;;;11.03;;
2892;SDS011;1456;51.840;12.184;2023-05-27T12:31:09;11.30;;;11.10;;
2892;SDS011;1456;51.840;12.184;2023-05-27T12:33:35;11.43;;;11.23;;
2892;SDS011;1456;51.840;12.184;2023-05-27T12:36:01;18.00;;;17.60;;
2892;SDS011;1456;51.840;12.184;2023-05-27T12:40:58;11.93;;;11.53;;
2892;SDS011;1456;51.840;12.184;2023-05-27T12:43:29;11.80;;;11.50;;
2892;SDS011;1456;51.840;12.184;2023-05-27T12:48:25;11.77;;;11.47;;
2892;SDS011;1456;51.840;12.184;2023-05-27T12:50:54;12.30;;;12.00;;
2892;SDS011;1456;51.840;12.184;2023-05-27T12:53:20;17.70;;;17.30;;
2892;SDS011;1456;51.840;12.184;2023-05-27T12:55:46;17.70;;;17.20;;
2892;SDS011;1456;51.840;12.184;2023-05-27T12:58:19;12.47;;;12.13;;
2892;SDS011;1456;51.840;12.184;2023-05-27T13:00:54;26.67;;;15.63;;
2892;SDS011;1456;51.840;12.184;2023-05-27T13:03:28;11.90;;;11.60;;
2892;SDS011;1456;51.840;12.184;2023-05-27T13:05:57;13.53;;;12.80;;
2892;SDS011;1456;51.840;12.184;2023-05-27T13:08:27;11.77;;;11.37;;
2892;SDS011;1456;51.840;12.184;2023-05-27T13:11:00;18.87;;;18.30;;
2892;SDS011;1456;51.840;12.184;2023-05-27T13:13:26;17.80;;;17.00;;
2892;SDS011;1456;51.840;12.184;2023-05-27T13:18:33;11.33;;;11.10;;
2892;SDS011;1456;51.840;12.184;2023-05-27T13:21:00;11.80;;;11.50;;
2892;SDS011;1456;51.840;12.184;2023-05-27T13:23:26;12.17;;;11.87;;
2892;SDS011;1456;51.840;12.184;2023-05-27T13:28:24;13.90;;;13.40;;
2892;SDS011;1456;51.840;12.184;2023-05-27T13:30:52;18.30;;;17.90;;
2892;SDS011;1456;51.840;12.184;2023-05-27T13:33:19;16.83;;;16.40;;
2892;SDS011;1456;51.840;12.184;2023-05-27T13:35:45;12.10;;;11.70;;
2892;SDS011;1456;51.840;12.184;2023-05-27T13:38:11;12.70;;;12.20;;
2892;SDS011;1456;51.840;12.184;2023-05-27T13:40:39;11.77;;;11.50;;
2892;SDS011;1456;51.840;12.184;2023-05-27T13:43:06;12.37;;;11.87;;
2892;SDS011;1456;51.840;12.184;2023-05-27T13:45:33;11.83;;;11.63;;
2892;SDS011;1456;51.840;12.184;2023-05-27T13:48:02;19.17;;;18.67;;
2892;SDS011;1456;51.840;12.184;2023-05-27T13:50:30;18.40;;;17.73;;
2892;SDS011;1456;51.840;12.184;2023-05-27T13:52:56;11.27;;;11.07;;
2892;SDS011;1456;51.840;12.184;2023-05-27T13:55:22;12.60;;;12.20;;
2892;SDS011;1456;51.840;12.184;2023-05-27T13:57:47;11.77;;;11.50;;
2892;SDS011;1456;51.840;12.184;2023-05-27T14:00:14;11.80;;;11.50;;
2892;SDS011;1456;51.840;12.184;2023-05-27T14:05:11;12.20;;;11.90;;
2892;SDS011;1456;51.840;12.184;2023-05-27T14:07:42;18.60;;;18.10;;
2892;SDS011;1456;51.840;12.184;2023-05-27T14:10:10;19.23;;;18.57;;
2892;SDS011;1456;51.840;12.184;2023-05-27T14:12:36;11.57;;;11.37;;
2892;SDS011;1456;51.840;12.184;2023-05-27T14:15:04;12.50;;;12.10;;
2892;SDS011;1456;51.840;12.184;2023-05-27T14:17:30;12.20;;;11.90;;
2892;SDS011;1456;51.840;12.184;2023-05-27T14:19:57;11.60;;;11.30;;
2892;SDS011;1456;51.840;12.184;2023-05-27T14:22:23;11.00;;;10.80;;
2892;SDS011;1456;51.840;12.184;2023-05-27T14:24:55;11.60;;;11.30;;
2892;SDS011;1456;51.840;12.184;2023-05-27T14:27:22;18.63;;;17.93;;
2892;SDS011;1456;51.840;12.184;2023-05-27T14:29:47;17.60;;;17.20;;
2892;SDS011;1456;51.840;12.184;2023-05-27T14:32:18;11.53;;;11.23;;
2892;SDS011;1456;51.840;12.184;2023-05-27T14:34:45;11.10;;;10.90;;
2892;SDS011;1456;51.840;12.184;2023-05-27T14:37:11;12.03;;;11.73;;
2892;SDS011;1456;51.840;12.184;2023-05-27T14:39:42;12.00;;;11.70;;
2892;SDS011;1456;51.840;12.184;2023-05-27T14:42:09;11.87;;;11.57;;
2892;SDS011;1456;51.840;12.184;2023-05-27T14:44:35;16.60;;;16.20;;
2892;SDS011;1456;51.840;12.184;2023-05-27T14:47:02;18.37;;;17.90;;
2892;SDS011;1456;51.840;12.184;2023-05-27T14:54:34;12.33;;;12.00;;
2892;SDS011;1456;51.840;12.184;2023-05-27T14:57:00;11.80;;;11.10;;
2892;SDS011;1456;51.840;12.184;2023-05-27T14:59:27;11.50;;;11.30;;
2892;SDS011;1456;51.840;12.184;2023-05-27T15:01:52;11.90;;;11.60;;
2892;SDS011;1456;51.840;12.184;2023-05-27T15:04:19;17.97;;;17.57;;
2892;SDS011;1456;51.840;12.184;2023-05-27T15:06:46;17.63;;;17.23;;
2892;SDS011;1456;51.840;12.184;2023-05-27T15:09:13;11.80;;;11.50;;
2892;SDS011;1456;51.840;12.184;2023-05-27T15:14:08;11.70;;;11.40;;
2892;SDS011;1456;51.840;12.184;2023-05-27T15:16:40;12.20;;;11.90;;
2892;SDS011;1456;51.840;12.184;2023-05-27T15:19:06;12.83;;;12.57;;
2892;SDS011;1456;51.840;12.184;2023-05-27T15:21:31;18.53;;;17.67;;
2892;SDS011;1456;51.840;12.184;2023-05-27T15:23:57;19.00;;;18.50;;
2892;SDS011;1456;51.840;12.184;2023-05-27T15:26:25;11.47;;;11.27;;
2892;SDS011;1456;51.840;12.184;2023-05-27T15:29:00;11.40;;;11.10;;
2892;SDS011;1456;51.840;12.184;2023-05-27T15:33:59;19.27;;;18.77;;
2892;SDS011;1456;51.840;12.184;2023-05-27T15:36:25;19.47;;;18.93;;
2892;SDS011;1456;51.840;12.184;2023-05-27T15:38:51;12.20;;;11.90;;